Terminal Aerodrome Forecast
Issued by NWS

Home | Current Version | Previous Version | Text Only | Print | Product List | Glossary Off
Versions: 1 2 3 4 5 6 7 8 9 10 11 12 13 14

414
FTUS43 KMPX 201738
TAFRWF
TAF
KRWF 201738Z 2018/2118 34007KT P6SM SCT070 BKN150
     FM210600 02004KT P6SM BKN070
     FM211500 11005KT P6SM BKN080=

USA.gov is the U.S. government's official web portal to all federal, state and local government web resources and services.